createdAt,value
2023-03-20T00:01:20.491Z,92225.88
2023-03-20T00:04:24.513Z,92232.72
2023-03-20T00:07:28.050Z,92239.63
2023-03-20T00:10:37.784Z,92237.97
2023-03-20T00:13:41.557Z,92241.84
2023-03-20T00:16:46.933Z,92242.53
2023-03-20T00:19:50.728Z,92242.25
2023-03-20T00:22:55.460Z,92241.91
2023-03-20T00:25:58.777Z,92243.72
2023-03-20T00:29:05.136Z,92249.59
2023-03-20T00:32:15.654Z,92245.91
2023-03-20T00:35:28.752Z,92256.75
2023-03-20T00:38:32.417Z,92257.25
2023-03-20T00:41:44.815Z,92250.28
2023-03-20T00:44:54.753Z,92253.31
2023-03-20T00:48:00.348Z,92249.47
2023-03-20T00:51:05.484Z,92249.84
2023-03-20T00:54:14.849Z,92256.88
2023-03-20T00:57:45.616Z,92248.97
2023-03-20T01:00:48.641Z,92243.78
2023-03-20T01:03:52.471Z,92241.91
2023-03-20T01:06:55.356Z,92242.53
2023-03-20T01:09:58.716Z,92232.47
2023-03-20T01:13:02.728Z,92230.13
2023-03-20T01:16:06.296Z,92233.88
2023-03-20T01:19:15.596Z,92232.25
2023-03-20T01:22:19.168Z,92234.03
2023-03-20T01:25:23.298Z,92228.50
2023-03-20T01:28:27.694Z,92228.22
2023-03-20T01:31:31.284Z,92221.06
2023-03-20T01:34:34.476Z,92223.59
2023-03-20T01:37:38.088Z,92226.34
2023-03-20T01:41:05.779Z,92223.44
2023-03-20T01:44:23.608Z,92221.28
2023-03-20T01:47:32.437Z,92226.22
2023-03-20T01:50:37.294Z,92221.25
2023-03-20T01:53:59.930Z,92216.66
2023-03-20T01:57:23.060Z,92217.44
2023-03-20T02:00:27.485Z,92216.69
2023-03-20T02:03:31.644Z,92219.47
2023-03-20T02:06:42.732Z,92213.91
2023-03-20T02:10:01.011Z,92212.69
2023-03-20T02:13:22.820Z,92207.59
2023-03-20T02:16:27.095Z,92208.09
2023-03-20T02:20:15.858Z,92207.22
2023-03-20T02:23:55.343Z,92206.00
2023-03-20T02:27:14.119Z,92201.88
2023-03-20T02:30:26.746Z,92197.66
2023-03-20T02:33:43.305Z,92198.56
2023-03-20T02:37:24.506Z,92192.03
2023-03-20T02:41:09.351Z,92183.69
2023-03-20T02:44:21.628Z,92187.38
2023-03-20T02:47:38.284Z,92185.16
2023-03-20T02:51:02.548Z,92177.38
2023-03-20T02:54:24.510Z,92183.75
2023-03-20T02:57:42.541Z,92172.31
2023-03-20T03:01:31.512Z,92168.00
2023-03-20T03:04:47.458Z,92165.88
2023-03-20T03:07:57.202Z,92168.63
2023-03-20T03:11:09.562Z,92161.63
2023-03-20T03:14:25.011Z,92149.63
2023-03-20T03:17:33.108Z,92150.69
2023-03-20T03:20:44.664Z,92150.25
2023-03-20T03:23:49.805Z,92140.22
2023-03-20T03:26:54.231Z,92133.72
2023-03-20T03:30:02.727Z,92128.22
2023-03-20T03:33:12.835Z,92124.16
2023-03-20T03:36:38.077Z,92116.94
2023-03-20T03:39:53.507Z,92119.47
2023-03-20T03:43:04.366Z,92114.81
2023-03-20T03:46:44.471Z,92109.31
2023-03-20T03:49:54.605Z,92117.28
2023-03-20T03:53:04.115Z,92111.84
2023-03-20T03:56:12.117Z,92106.16
2023-03-20T03:59:29.017Z,92102.03
2023-03-20T04:02:32.390Z,92096.91
2023-03-20T04:05:41.912Z,92097.22
2023-03-20T04:08:45.076Z,92099.44
2023-03-20T04:11:52.480Z,92094.31
2023-03-20T04:14:56.049Z,92098.81
2023-03-20T04:18:01.752Z,92087.75
2023-03-20T04:21:07.376Z,92086.41
2023-03-20T04:24:11.747Z,92080.09
2023-03-20T04:27:17.347Z,92069.13
2023-03-20T04:30:20.594Z,92069.31
2023-03-20T04:33:59.626Z,92076.44
2023-03-20T04:37:18.878Z,92065.66
2023-03-20T04:40:27.673Z,92059.94
2023-03-20T04:43:31.564Z,92062.16
2023-03-20T04:46:35.370Z,92054.22
2023-03-20T04:49:42.896Z,92047.22
2023-03-20T04:52:46.942Z,92042.84
2023-03-20T04:55:51.632Z,92045.03
2023-03-20T04:58:55.396Z,92038.00
2023-03-20T05:02:00.022Z,92031.09
2023-03-20T05:05:04.152Z,92028.50
2023-03-20T05:08:10.648Z,92019.38
2023-03-20T05:11:15.403Z,92019.22
2023-03-20T05:14:44.867Z,92017.47
2023-03-20T05:18:25.196Z,92008.06
2023-03-20T05:21:52.246Z,92004.59
2023-03-20T05:24:56.004Z,92010.34
2023-03-20T05:28:18.152Z,92001.44
2023-03-20T05:31:27.778Z,92003.31
2023-03-20T05:34:32.057Z,92002.53
2023-03-20T05:37:54.808Z,91992.91
2023-03-20T05:41:08.268Z,91984.19
2023-03-20T05:44:29.537Z,91984.06
2023-03-20T05:47:55.297Z,91990.56
2023-03-20T05:51:17.355Z,91981.28
2023-03-20T05:54:33.671Z,91981.94
2023-03-20T05:57:53.128Z,91989.94
2023-03-20T06:01:24.115Z,91984.63
2023-03-20T06:04:46.577Z,91984.81
2023-03-20T06:08:05.880Z,91985.94
2023-03-20T06:11:09.731Z,91977.53
2023-03-20T06:14:14.422Z,91982.53
2023-03-20T06:17:21.243Z,91974.41
2023-03-20T06:20:29.420Z,91975.31
2023-03-20T06:23:33.827Z,91972.03
2023-03-20T06:26:38.365Z,91977.41
2023-03-20T06:29:46.813Z,91978.69
2023-03-20T06:32:58.475Z,91970.41
2023-03-20T06:36:10.457Z,91972.75
2023-03-20T06:39:13.643Z,91975.06
2023-03-20T06:42:18.164Z,91973.81
2023-03-20T06:45:23.972Z,91959.81
2023-03-20T06:48:31.268Z,91968.59
2023-03-20T06:51:36.486Z,91967.34
2023-03-20T06:54:43.051Z,91970.47
2023-03-20T06:57:46.068Z,91973.28
2023-03-20T07:00:52.541Z,91961.50
2023-03-20T07:03:56.390Z,91955.88
2023-03-20T07:07:04.883Z,91954.47
2023-03-20T07:10:12.928Z,91952.84
2023-03-20T07:13:23.382Z,91949.63
2023-03-20T07:16:27.949Z,91953.53
2023-03-20T07:19:32.073Z,91954.25
2023-03-20T07:22:36.006Z,91954.13
2023-03-20T07:25:54.646Z,91958.38
2023-03-20T07:28:58.014Z,91959.22
2023-03-20T07:32:03.208Z,91950.69
2023-03-20T07:35:10.589Z,91949.53
2023-03-20T07:38:17.375Z,91946.03
2023-03-20T07:41:34.277Z,91938.03
2023-03-20T07:44:43.870Z,91943.03
2023-03-20T07:47:49.578Z,91942.56
2023-03-20T07:50:52.822Z,91937.75
2023-03-20T07:53:56.892Z,91932.94
2023-03-20T07:56:59.777Z,91934.50
2023-03-20T08:00:04.857Z,91924.25
2023-03-20T08:03:15.452Z,91927.31
2023-03-20T08:06:19.721Z,91921.13
2023-03-20T08:09:24.156Z,91928.16
2023-03-20T08:12:27.946Z,91917.94
2023-03-20T08:15:31.997Z,91928.66
2023-03-20T08:18:35.169Z,91924.31
2023-03-20T08:21:39.191Z,91926.22
2023-03-20T08:24:42.144Z,91921.31
2023-03-20T08:27:46.164Z,91918.72
2023-03-20T08:30:49.670Z,91916.59
2023-03-20T08:33:53.452Z,91921.84
2023-03-20T08:36:57.059Z,91919.72
2023-03-20T08:39:59.925Z,91913.28
2023-03-20T08:43:04.395Z,91914.16
2023-03-20T08:46:08.588Z,91906.50
2023-03-20T08:49:11.565Z,91901.91
2023-03-20T08:52:14.690Z,91911.25
2023-03-20T08:55:18.080Z,91902.22
2023-03-20T08:58:22.579Z,91893.50
2023-03-20T09:01:35.363Z,91903.03
2023-03-20T09:04:44.814Z,91894.56
2023-03-20T09:07:48.156Z,91896.69
2023-03-20T09:10:53.417Z,91898.28
2023-03-20T09:13:57.243Z,91898.09
2023-03-20T09:17:00.926Z,91895.59
2023-03-20T09:20:06.101Z,91895.53
2023-03-20T09:23:09.115Z,91902.28
2023-03-20T09:26:13.000Z,91902.84
2023-03-20T09:29:16.635Z,91900.31
2023-03-20T09:32:19.937Z,91896.31
2023-03-20T09:35:22.938Z,91900.09
2023-03-20T09:38:26.042Z,91891.53
2023-03-20T09:41:29.898Z,91897.56
2023-03-20T09:45:10.794Z,91890.59
2023-03-20T09:49:03.032Z,91898.38
2023-03-20T09:52:16.549Z,91902.88
2023-03-20T09:55:24.903Z,91906.81
2023-03-20T09:58:36.556Z,91910.69
2023-03-20T10:01:49.273Z,91913.09
2023-03-20T10:04:55.377Z,91915.22
2023-03-20T10:08:04.603Z,91920.03
2023-03-20T10:11:32.945Z,91923.66
2023-03-20T10:14:57.260Z,91921.78
2023-03-20T10:18:26.508Z,91926.84
2023-03-20T10:21:40.191Z,91921.03
2023-03-20T10:24:50.824Z,91928.19
2023-03-20T10:27:58.747Z,91927.78
2023-03-20T10:31:46.605Z,91930.84
2023-03-20T10:35:17.410Z,91926.94
2023-03-20T10:38:33.029Z,91935.88
2023-03-20T10:41:39.659Z,91941.06
2023-03-20T10:44:47.191Z,91932.66
2023-03-20T10:47:53.295Z,91941.34
2023-03-20T10:50:58.365Z,91949.56
2023-03-20T10:54:04.678Z,91952.53
2023-03-20T10:57:20.928Z,91956.41
2023-03-20T11:00:26.906Z,91959.47
2023-03-20T11:03:35.223Z,91957.88
2023-03-20T11:07:07.854Z,91959.06
2023-03-20T11:10:17.834Z,91962.09
2023-03-20T11:13:32.832Z,91965.84
2023-03-20T11:16:39.669Z,91959.50
2023-03-20T11:19:43.396Z,91967.69
2023-03-20T11:22:50.025Z,91974.44
2023-03-20T11:26:03.754Z,91971.22
2023-03-20T11:29:13.898Z,91980.91
2023-03-20T11:32:30.924Z,91973.84
2023-03-20T11:35:35.612Z,91976.69
2023-03-20T11:38:46.055Z,91979.84
2023-03-20T11:41:53.984Z,91983.03
2023-03-20T11:44:59.960Z,91988.56
2023-03-20T11:48:06.288Z,91997.72
2023-03-20T11:51:17.012Z,92000.63
2023-03-20T11:54:23.689Z,91994.97
2023-03-20T11:57:33.519Z,92004.19
2023-03-20T12:00:40.549Z,92009.97
2023-03-20T12:03:45.709Z,92013.75
2023-03-20T12:07:13.642Z,92016.03
2023-03-20T12:10:20.353Z,92026.22
2023-03-20T12:13:38.398Z,92024.78
2023-03-20T12:16:46.384Z,92028.78
2023-03-20T12:19:51.346Z,92035.84
2023-03-20T12:23:03.687Z,92025.91
2023-03-20T12:26:09.841Z,92029.69
2023-03-20T12:29:28.092Z,92025.84
2023-03-20T12:32:45.100Z,92032.84
2023-03-20T12:35:52.464Z,92045.59
2023-03-20T12:38:55.594Z,92043.66
2023-03-20T12:42:23.718Z,92037.03
2023-03-20T12:45:42.147Z,92041.03
2023-03-20T12:49:17.198Z,92035.66
2023-03-20T12:53:02.836Z,92049.47
2023-03-20T12:56:52.270Z,92050.78
2023-03-20T13:00:11.371Z,92051.66
2023-03-20T13:03:36.743Z,92048.00
2023-03-20T13:06:40.393Z,92054.13
2023-03-20T13:09:44.983Z,92053.25
2023-03-20T13:12:51.009Z,92055.09
2023-03-20T13:15:58.967Z,92063.50
2023-03-20T13:19:11.922Z,92064.50
2023-03-20T13:22:42.709Z,92071.47
2023-03-20T13:26:04.172Z,92073.63
2023-03-20T13:29:13.638Z,92077.03
2023-03-20T13:32:24.658Z,92075.31
2023-03-20T13:35:33.776Z,92077.72
2023-03-20T13:38:43.695Z,92079.41
2023-03-20T13:41:50.341Z,92080.25
2023-03-20T13:45:00.285Z,92085.91
2023-03-20T13:48:19.775Z,92082.28
2023-03-20T13:51:29.671Z,92078.72
2023-03-20T13:54:39.305Z,92070.84
2023-03-20T13:58:24.134Z,92074.59
2023-03-20T14:01:37.014Z,92079.84
2023-03-20T14:04:40.486Z,92090.75
2023-03-20T14:07:45.842Z,92089.16
2023-03-20T14:10:48.995Z,92094.34
2023-03-20T14:14:05.671Z,92080.44
2023-03-20T14:17:13.104Z,92090.63
2023-03-20T14:20:43.525Z,92078.63
2023-03-20T14:23:51.206Z,92090.41
2023-03-20T14:26:58.856Z,92086.28
2023-03-20T14:30:37.174Z,92089.53
2023-03-20T14:33:45.709Z,92081.81
2023-03-20T14:37:06.464Z,92089.13
2023-03-20T14:40:18.651Z,92085.72
2023-03-20T14:43:47.987Z,92084.00
2023-03-20T14:47:04.147Z,92083.34
2023-03-20T14:50:12.977Z,92083.13
2023-03-20T14:53:22.980Z,92087.84
2023-03-20T14:56:29.875Z,92081.53
2023-03-20T14:59:33.613Z,92080.28
2023-03-20T15:02:37.448Z,92078.63
2023-03-20T15:05:41.432Z,92069.72
2023-03-20T15:08:48.357Z,92068.72
2023-03-20T15:11:54.358Z,92067.19
2023-03-20T15:15:00.542Z,92065.41
2023-03-20T15:18:13.615Z,92063.31
2023-03-20T15:21:29.015Z,92073.84
2023-03-20T15:24:32.883Z,92069.91
2023-03-20T15:27:36.739Z,92063.09
2023-03-20T15:30:41.870Z,92062.47
2023-03-20T15:33:46.298Z,92070.88
2023-03-20T15:36:51.695Z,92075.56
2023-03-20T15:40:00.226Z,92076.91
2023-03-20T15:43:38.804Z,92075.38
2023-03-20T15:46:51.414Z,92072.13
2023-03-20T15:50:01.012Z,92060.66
2023-03-20T15:53:06.608Z,92065.47
2023-03-20T15:56:20.705Z,92072.47
2023-03-20T15:59:27.726Z,92073.91
2023-03-20T16:02:31.460Z,92075.84
2023-03-20T16:05:36.378Z,92083.50
2023-03-20T16:08:40.114Z,92081.66
2023-03-20T16:11:46.131Z,92089.44
2023-03-20T16:14:50.849Z,92091.66
2023-03-20T16:18:00.100Z,92081.47
2023-03-20T16:21:16.522Z,92089.59
2023-03-20T16:24:26.625Z,92086.56
2023-03-20T16:27:34.581Z,92093.91
2023-03-20T16:30:38.527Z,92077.97
2023-03-20T16:33:42.441Z,92091.44
2023-03-20T16:36:53.380Z,92094.69
2023-03-20T16:40:14.067Z,92099.00
2023-03-20T16:43:25.134Z,92095.81
2023-03-20T16:46:29.659Z,92087.16
2023-03-20T16:49:52.791Z,92097.06
2023-03-20T16:52:59.422Z,92097.88
2023-03-20T16:56:05.562Z,92106.03
2023-03-20T16:59:11.337Z,92107.34
2023-03-20T17:02:27.180Z,92103.66
2023-03-20T17:05:47.929Z,92107.81
2023-03-20T17:08:57.115Z,92110.75
2023-03-20T17:12:18.609Z,92106.84
2023-03-20T17:15:24.839Z,92118.34
2023-03-20T17:18:29.866Z,92121.09
2023-03-20T17:21:33.029Z,92127.25
2023-03-20T17:24:37.133Z,92126.16
2023-03-20T17:27:41.452Z,92128.72
2023-03-20T17:30:46.511Z,92132.22
2023-03-20T17:33:49.413Z,92125.94
2023-03-20T17:36:52.713Z,92129.84
2023-03-20T17:39:55.582Z,92137.16
2023-03-20T17:42:58.725Z,92135.72
2023-03-20T17:46:02.284Z,92129.78
2023-03-20T17:49:14.967Z,92131.34
2023-03-20T17:52:20.964Z,92122.16
2023-03-20T17:55:24.294Z,92134.00
2023-03-20T17:58:27.279Z,92126.50
2023-03-20T18:01:32.727Z,92131.09
2023-03-20T18:04:36.363Z,92133.53
2023-03-20T18:07:39.926Z,92130.47
2023-03-20T18:10:44.069Z,92120.06
2023-03-20T18:13:47.694Z,92113.44
2023-03-20T18:16:50.858Z,92117.50
2023-03-20T18:19:54.329Z,92122.28
2023-03-20T18:22:57.490Z,92122.75
2023-03-20T18:26:00.512Z,92117.13
2023-03-20T18:29:03.962Z,92119.84
2023-03-20T18:32:07.973Z,92120.44
2023-03-20T18:35:12.705Z,92121.00
2023-03-20T18:38:16.374Z,92128.72
2023-03-20T18:41:19.670Z,92120.44
2023-03-20T18:44:23.002Z,92127.06
2023-03-20T18:47:26.347Z,92129.09
2023-03-20T18:50:34.999Z,92126.22
2023-03-20T18:53:43.827Z,92110.19
2023-03-20T18:56:47.199Z,92118.50
2023-03-20T18:59:50.482Z,92108.34
2023-03-20T19:02:56.118Z,92106.69
2023-03-20T19:05:59.948Z,92098.50
2023-03-20T19:09:05.729Z,92099.81
2023-03-20T19:12:09.433Z,92092.66
2023-03-20T19:15:12.285Z,92101.72
2023-03-20T19:18:24.581Z,92102.44
2023-03-20T19:21:28.699Z,92103.63
2023-03-20T19:24:32.609Z,92111.25
2023-03-20T19:27:36.257Z,92114.59
2023-03-20T19:30:41.242Z,92115.69
2023-03-20T19:33:45.197Z,92114.03
2023-03-20T19:36:49.989Z,92119.44
2023-03-20T19:39:53.577Z,92118.00
2023-03-20T19:43:02.510Z,92120.16
2023-03-20T19:46:10.332Z,92119.09
2023-03-20T19:49:30.095Z,92114.34
2023-03-20T19:52:36.266Z,92117.69
2023-03-20T19:55:40.136Z,92102.25
2023-03-20T19:58:44.489Z,92111.25
2023-03-20T20:01:48.630Z,92106.31
2023-03-20T20:04:52.308Z,92108.63
2023-03-20T20:08:25.863Z,92119.00
2023-03-20T20:11:22.151Z,92118.25
2023-03-20T20:14:26.482Z,92123.72
2023-03-20T20:17:31.124Z,92114.66
2023-03-20T20:21:07.549Z,92122.13
2023-03-20T20:24:00.799Z,92135.78
2023-03-20T20:27:17.851Z,92139.22
2023-03-20T20:30:22.400Z,92143.81
2023-03-20T20:33:28.860Z,92138.94
2023-03-20T20:37:28.465Z,92136.69
2023-03-20T20:39:57.036Z,92132.19
2023-03-20T20:43:02.052Z,92130.84
2023-03-20T20:46:06.184Z,92132.78
2023-03-20T20:49:19.179Z,92132.94
2023-03-20T20:52:23.376Z,92139.78
2023-03-20T20:55:26.470Z,92138.19
2023-03-20T20:58:29.818Z,92150.31
2023-03-20T21:01:32.861Z,92151.75
2023-03-20T21:04:36.291Z,92152.78
2023-03-20T21:07:43.803Z,92161.69
2023-03-20T21:10:48.406Z,92174.06
2023-03-20T21:13:54.041Z,92180.66
2023-03-20T21:17:01.652Z,92176.75
2023-03-20T21:20:06.779Z,92179.75
2023-03-20T21:23:10.777Z,92190.88
2023-03-20T21:26:13.745Z,92190.38
2023-03-20T21:29:16.945Z,92192.91
2023-03-20T21:32:21.662Z,92198.22
2023-03-20T21:35:27.061Z,92204.00
2023-03-20T21:39:02.028Z,92199.13
2023-03-20T21:41:53.796Z,92195.84
2023-03-20T21:48:56.287Z,92198.38
2023-03-20T21:56:03.340Z,92205.59
2023-03-20T22:02:10.414Z,92205.72
2023-03-20T22:05:58.690Z,92204.06
2023-03-20T22:09:48.503Z,92213.59
2023-03-20T22:16:05.679Z,92220.03
2023-03-20T22:23:06.947Z,92231.97
2023-03-20T22:29:45.166Z,92235.66
2023-03-20T22:33:03.371Z,92234.69
2023-03-20T22:40:06.388Z,92238.72
2023-03-20T22:43:54.866Z,92237.16
2023-03-20T22:46:25.595Z,92235.53
2023-03-20T22:49:29.808Z,92237.88
2023-03-20T22:52:49.884Z,92240.16
2023-03-20T22:55:54.674Z,92249.91
2023-03-20T22:58:58.198Z,92256.25
2023-03-20T23:09:15.273Z,92269.53
2023-03-20T23:12:19.655Z,92271.50
2023-03-20T23:15:22.944Z,92275.59
2023-03-20T23:18:26.294Z,92279.75
2023-03-20T23:21:30.015Z,92273.97
2023-03-20T23:24:33.672Z,92282.78
2023-03-20T23:27:36.652Z,92281.53
2023-03-20T23:30:47.989Z,92279.53
2023-03-20T23:33:57.306Z,92286.16
2023-03-20T23:37:00.332Z,92287.41
2023-03-20T23:40:05.516Z,92286.28
2023-03-20T23:43:09.291Z,92291.22
2023-03-20T23:46:13.429Z,92292.78
2023-03-20T23:49:17.151Z,92298.16
2023-03-20T23:52:21.208Z,92295.53
2023-03-20T23:55:24.422Z,92296.31
2023-03-20T23:58:28.817Z,92296.09
